createdAt,value
2022-10-13T00:00:13.675Z,4.47
2022-10-13T00:02:40.377Z,4.20
2022-10-13T00:05:07.435Z,4.10
2022-10-13T00:07:34.285Z,4.30
2022-10-13T00:10:01.064Z,4.07
2022-10-13T00:12:28.176Z,4.90
2022-10-13T00:14:54.886Z,4.73
2022-10-13T00:17:21.680Z,4.47
2022-10-13T00:19:48.411Z,4.20
2022-10-13T00:22:15.225Z,4.47
2022-10-13T00:24:41.974Z,4.97
2022-10-13T00:27:08.708Z,4.23
2022-10-13T00:29:35.506Z,4.30
2022-10-13T00:32:02.305Z,4.60
2022-10-13T00:34:29.056Z,4.57
2022-10-13T00:36:55.753Z,4.63
2022-10-13T00:39:22.473Z,4.97
2022-10-13T00:41:49.175Z,5.07
2022-10-13T00:44:57.588Z,4.97
2022-10-13T00:47:27.726Z,4.47
2022-10-13T00:49:55.854Z,5.37
2022-10-13T00:52:23.553Z,5.13
2022-10-13T00:54:51.076Z,5.30
2022-10-13T00:57:20.911Z,5.20
2022-10-13T00:59:48.935Z,5.43
2022-10-13T01:02:16.499Z,5.23
2022-10-13T01:04:47.283Z,5.17
2022-10-13T01:07:17.520Z,5.50
2022-10-13T01:09:44.965Z,5.80
2022-10-13T01:12:42.116Z,5.50
2022-10-13T01:15:15.307Z,6.13
2022-10-13T01:17:57.391Z,5.83
2022-10-13T01:21:01.195Z,5.13
2022-10-13T01:23:39.621Z,6.07
2022-10-13T01:26:10.092Z,5.77
2022-10-13T01:28:45.685Z,5.93
2022-10-13T01:31:30.467Z,6.43
2022-10-13T01:34:20.596Z,5.80
2022-10-13T01:37:20.563Z,5.63
2022-10-13T01:40:14.324Z,6.53
2022-10-13T01:43:03.790Z,6.17
2022-10-13T01:45:37.480Z,5.70
2022-10-13T01:48:06.278Z,6.17
2022-10-13T01:50:34.836Z,6.70
2022-10-13T01:53:05.036Z,7.43
2022-10-13T01:55:32.132Z,7.40
2022-10-13T01:57:58.883Z,8.20
2022-10-13T02:00:26.301Z,7.03
2022-10-13T02:03:25.024Z,7.20
2022-10-13T02:06:25.344Z,7.60
2022-10-13T02:09:19.910Z,7.67
2022-10-13T02:11:56.195Z,7.10
2022-10-13T02:14:27.664Z,7.13
2022-10-13T02:16:55.933Z,8.13
2022-10-13T02:19:23.651Z,7.33
2022-10-13T02:21:51.986Z,7.50
2022-10-13T02:24:18.702Z,7.67
2022-10-13T02:26:45.973Z,7.80
2022-10-13T02:29:16.803Z,7.83
2022-10-13T02:31:45.259Z,6.73
2022-10-13T02:34:13.055Z,7.43
2022-10-13T02:36:40.662Z,8.00
2022-10-13T02:39:09.370Z,7.77
2022-10-13T02:41:36.690Z,7.87
2022-10-13T02:44:03.579Z,7.70
2022-10-13T02:46:30.316Z,8.27
2022-10-13T02:48:57.267Z,8.70
2022-10-13T02:51:24.020Z,7.63
2022-10-13T02:53:50.788Z,8.13
2022-10-13T02:56:18.956Z,8.40
2022-10-13T02:58:45.756Z,8.10
2022-10-13T03:01:15.023Z,8.20
2022-10-13T03:03:42.397Z,8.87
2022-10-13T03:06:09.152Z,7.50
2022-10-13T03:08:36.384Z,8.00
2022-10-13T03:11:03.473Z,8.10
2022-10-13T03:13:30.407Z,8.03
2022-10-13T03:15:57.196Z,7.50
2022-10-13T03:18:23.972Z,9.87
2022-10-13T03:20:59.027Z,7.67
2022-10-13T03:23:26.275Z,9.90
2022-10-13T03:25:53.677Z,9.17
2022-10-13T03:28:21.143Z,10.47
2022-10-13T03:30:48.115Z,8.73
2022-10-13T03:33:15.283Z,8.90
2022-10-13T03:35:42.092Z,8.53
2022-10-13T03:38:08.832Z,9.43
2022-10-13T03:40:36.582Z,9.20
2022-10-13T03:43:03.323Z,8.63
2022-10-13T03:45:31.392Z,9.50
2022-10-13T03:47:58.783Z,10.57
2022-10-13T03:50:25.791Z,9.27
2022-10-13T03:52:52.614Z,10.70
2022-10-13T03:55:19.296Z,8.57
2022-10-13T03:57:46.035Z,8.73
2022-10-13T04:00:13.623Z,9.47
2022-10-13T04:02:40.396Z,10.87
2022-10-13T04:05:07.403Z,14.17
2022-10-13T04:07:34.491Z,10.90
2022-10-13T04:10:01.184Z,10.77
2022-10-13T04:12:28.169Z,9.90
2022-10-13T04:14:54.915Z,10.87
2022-10-13T04:17:21.663Z,10.30
2022-10-13T04:19:48.394Z,12.17
2022-10-13T04:22:15.188Z,11.87
2022-10-13T04:24:42.097Z,11.40
2022-10-13T04:27:08.825Z,9.70
2022-10-13T04:29:35.595Z,10.53
2022-10-13T04:32:02.356Z,9.03
2022-10-13T04:34:29.153Z,9.70
2022-10-13T04:36:55.912Z,9.20
2022-10-13T04:39:22.612Z,9.10
2022-10-13T04:41:49.322Z,8.30
2022-10-13T04:44:16.016Z,9.13
2022-10-13T04:46:43.032Z,9.30
2022-10-13T04:49:09.885Z,8.87
2022-10-13T04:51:36.664Z,8.00
2022-10-13T04:54:05.513Z,8.43
2022-10-13T04:56:32.700Z,7.80
2022-10-13T04:59:00.053Z,8.07
2022-10-13T05:01:27.205Z,10.90
2022-10-13T05:03:56.009Z,14.43
2022-10-13T05:06:30.912Z,11.03
2022-10-13T05:08:57.769Z,13.37
2022-10-13T05:11:26.683Z,17.47
2022-10-13T05:13:53.978Z,10.27
2022-10-13T05:16:22.198Z,24.80
2022-10-13T05:18:50.372Z,12.30
2022-10-13T05:21:20.939Z,14.53
2022-10-13T05:23:48.126Z,9.90
2022-10-13T05:26:18.497Z,20.23
2022-10-13T05:28:45.727Z,17.17
2022-10-13T05:31:13.847Z,11.33
2022-10-13T05:33:41.708Z,13.50
2022-10-13T05:36:11.091Z,9.47
2022-10-13T05:38:38.669Z,9.67
2022-10-13T05:41:11.077Z,9.43
2022-10-13T05:43:39.229Z,15.10
2022-10-13T05:46:06.487Z,16.83
2022-10-13T05:48:33.216Z,11.37
2022-10-13T05:51:02.024Z,26.00
2022-10-13T05:53:31.985Z,14.00
2022-10-13T05:56:06.370Z,15.43
2022-10-13T05:58:43.780Z,20.97
2022-10-13T06:01:15.144Z,12.73
2022-10-13T06:03:42.937Z,15.97
2022-10-13T06:06:11.083Z,13.80
2022-10-13T06:08:38.399Z,13.93
2022-10-13T06:11:06.884Z,11.63
2022-10-13T06:13:33.894Z,16.97
2022-10-13T06:16:00.641Z,13.03
2022-10-13T06:18:28.513Z,13.87
2022-10-13T06:20:55.255Z,16.20
2022-10-13T06:23:22.048Z,18.00
2022-10-13T06:25:53.298Z,17.57
2022-10-13T06:28:21.245Z,12.30
2022-10-13T06:30:53.807Z,10.70
2022-10-13T06:33:21.303Z,12.90
2022-10-13T06:35:48.368Z,14.97
2022-10-13T06:38:15.104Z,14.03
2022-10-13T06:40:42.290Z,12.27
2022-10-13T06:43:10.269Z,13.73
2022-10-13T06:45:37.022Z,13.20
2022-10-13T06:48:03.892Z,13.23
2022-10-13T06:50:32.256Z,11.93
2022-10-13T06:52:59.256Z,11.57
2022-10-13T06:55:26.076Z,11.87
2022-10-13T06:57:52.786Z,12.73
2022-10-13T07:00:20.671Z,11.37
2022-10-13T07:02:51.387Z,15.30
2022-10-13T07:05:18.584Z,25.07
2022-10-13T07:07:45.348Z,12.70
2022-10-13T07:10:12.159Z,35.83
2022-10-13T07:12:38.920Z,16.60
2022-10-13T07:15:05.989Z,14.80
2022-10-13T07:17:32.692Z,14.50
2022-10-13T07:20:01.312Z,28.07
2022-10-13T07:22:32.109Z,15.47
2022-10-13T07:24:59.000Z,46.30
2022-10-13T07:27:26.109Z,58.07
2022-10-13T07:29:52.925Z,13.03
2022-10-13T07:32:19.704Z,18.67
2022-10-13T07:34:46.469Z,17.93
2022-10-13T07:37:13.169Z,33.10
2022-10-13T07:39:39.910Z,23.77
2022-10-13T07:42:06.612Z,18.17
2022-10-13T07:44:33.327Z,13.97
2022-10-13T07:47:00.060Z,14.43
2022-10-13T07:49:26.760Z,21.60
2022-10-13T07:51:53.479Z,24.23
2022-10-13T07:54:23.810Z,15.37
2022-10-13T07:56:56.053Z,12.73
2022-10-13T07:59:23.329Z,15.43
2022-10-13T08:01:50.229Z,15.27
2022-10-13T08:04:17.798Z,16.60
2022-10-13T08:06:44.687Z,15.20
2022-10-13T08:09:11.530Z,14.30
2022-10-13T08:11:38.948Z,18.80
2022-10-13T08:14:05.744Z,15.93
2022-10-13T08:16:33.175Z,17.10
2022-10-13T08:19:00.286Z,16.43
2022-10-13T08:21:56.934Z,18.03
2022-10-13T08:24:18.047Z,15.90
2022-10-13T08:26:46.536Z,15.97
2022-10-13T08:29:22.052Z,17.90
2022-10-13T08:31:52.607Z,17.37
2022-10-13T08:34:20.209Z,18.67
2022-10-13T08:36:47.460Z,16.83
2022-10-13T08:39:14.771Z,18.50
2022-10-13T08:41:46.730Z,18.63
2022-10-13T08:47:34.108Z,15.40
2022-10-13T08:50:07.286Z,18.10
2022-10-13T08:53:03.521Z,17.17
2022-10-13T08:55:57.806Z,15.73
2022-10-13T08:58:31.440Z,14.87
2022-10-13T09:01:08.730Z,13.57
2022-10-13T09:03:47.320Z,13.63
2022-10-13T09:06:28.463Z,13.33
2022-10-13T09:09:26.545Z,10.70
2022-10-13T09:11:53.370Z,10.03
2022-10-13T09:14:31.437Z,9.83
2022-10-13T09:17:23.823Z,9.73
2022-10-13T09:20:09.021Z,10.03
2022-10-13T09:22:40.371Z,9.57
2022-10-13T09:25:07.269Z,9.70
2022-10-13T09:27:55.119Z,10.50
2022-10-13T09:30:41.519Z,11.00
2022-10-13T09:33:14.378Z,10.27
2022-10-13T09:35:49.066Z,9.23
2022-10-13T09:38:22.214Z,9.60
2022-10-13T09:41:10.165Z,10.20
2022-10-13T09:43:38.807Z,10.33
2022-10-13T09:46:21.724Z,10.40
2022-10-13T09:48:52.838Z,9.13
2022-10-13T09:51:39.946Z,9.07
2022-10-13T09:54:23.729Z,8.97
2022-10-13T09:56:57.199Z,8.87
2022-10-13T09:59:41.196Z,9.50
2022-10-13T10:02:33.355Z,8.63
2022-10-13T10:05:07.706Z,8.47
2022-10-13T10:07:34.568Z,10.13
2022-10-13T10:10:05.564Z,10.57
2022-10-13T10:12:37.299Z,9.73
2022-10-13T10:15:17.202Z,9.47
2022-10-13T10:17:52.796Z,8.70
2022-10-13T10:20:39.741Z,8.77
2022-10-13T10:23:14.357Z,8.93
2022-10-13T10:25:45.726Z,10.10
2022-10-13T10:28:27.661Z,9.73
2022-10-13T10:31:06.832Z,10.53
2022-10-13T10:33:46.355Z,9.60
2022-10-13T10:36:19.491Z,9.60
2022-10-13T10:39:00.143Z,10.77
2022-10-13T10:41:43.124Z,10.43
2022-10-13T10:44:33.600Z,9.00
2022-10-13T10:47:05.560Z,9.83
2022-10-13T10:49:35.307Z,8.77
2022-10-13T10:52:08.175Z,9.67
2022-10-13T10:55:00.804Z,9.93
2022-10-13T10:57:38.057Z,9.43
2022-10-13T11:00:17.516Z,10.10
2022-10-13T11:02:52.565Z,10.27
2022-10-13T11:05:19.582Z,8.80
2022-10-13T11:07:46.587Z,9.20
2022-10-13T11:10:13.285Z,8.87
2022-10-13T11:13:16.538Z,8.27
2022-10-13T11:15:46.455Z,8.53
2022-10-13T11:18:55.287Z,8.37
2022-10-13T11:21:22.926Z,8.20
2022-10-13T11:23:50.737Z,9.80
2022-10-13T11:26:31.306Z,9.47
2022-10-13T11:28:59.453Z,8.80
2022-10-13T11:31:35.959Z,9.93
2022-10-13T11:34:03.896Z,8.50
2022-10-13T11:36:32.049Z,8.60
2022-10-13T11:42:12.754Z,8.60
2022-10-13T11:44:53.346Z,9.10
2022-10-13T11:47:29.231Z,16.53
2022-10-13T11:50:06.885Z,9.10
2022-10-13T11:53:04.460Z,8.63
2022-10-13T11:55:56.763Z,10.03
2022-10-13T11:58:29.018Z,7.97
2022-10-13T12:01:03.450Z,7.90
2022-10-13T12:03:44.084Z,7.77
2022-10-13T12:06:16.655Z,9.17
2022-10-13T12:08:48.279Z,8.13
2022-10-13T12:11:33.717Z,5.80
2022-10-13T12:14:01.558Z,6.70
2022-10-13T12:16:29.478Z,6.83
2022-10-13T12:19:17.999Z,6.07
2022-10-13T12:21:57.253Z,5.43
2022-10-13T12:24:34.412Z,5.50
2022-10-13T12:27:21.017Z,7.40
2022-10-13T12:29:55.706Z,7.77
2022-10-13T12:32:35.703Z,7.00
2022-10-13T12:35:25.998Z,7.20
2022-10-13T12:37:54.892Z,7.03
2022-10-13T12:40:22.817Z,7.73
2022-10-13T12:42:50.347Z,7.53
2022-10-13T12:45:23.951Z,6.33
2022-10-13T12:47:55.155Z,6.97
2022-10-13T12:50:30.440Z,6.00
2022-10-13T12:53:12.122Z,6.33
2022-10-13T12:55:59.201Z,6.77
2022-10-13T12:58:27.816Z,6.33
2022-10-13T13:01:14.724Z,6.50
2022-10-13T13:03:43.872Z,5.57
2022-10-13T13:06:13.787Z,5.80
2022-10-13T13:08:42.173Z,5.83
2022-10-13T13:11:34.606Z,5.90
2022-10-13T13:14:32.242Z,6.07
2022-10-13T13:17:13.587Z,5.40
2022-10-13T13:19:49.109Z,5.83
2022-10-13T13:22:16.100Z,6.70
2022-10-13T13:24:44.535Z,5.87
2022-10-13T13:27:20.981Z,4.20
2022-10-13T13:29:48.028Z,3.30
2022-10-13T13:32:19.930Z,3.00
2022-10-13T13:34:47.272Z,3.03
2022-10-13T13:37:24.063Z,3.67
2022-10-13T13:39:51.116Z,4.10
2022-10-13T13:42:18.018Z,3.67
2022-10-13T13:44:44.836Z,4.50
2022-10-13T13:47:37.969Z,6.03
2022-10-13T13:50:09.710Z,4.30
2022-10-13T13:52:36.411Z,4.50
2022-10-13T13:55:03.486Z,4.73
2022-10-13T13:57:30.247Z,4.40
2022-10-13T13:59:57.068Z,4.00
2022-10-13T14:02:23.842Z,4.20
2022-10-13T14:04:50.752Z,3.90
2022-10-13T14:07:18.393Z,3.87
2022-10-13T14:09:46.140Z,4.37
2022-10-13T14:12:12.870Z,4.23
2022-10-13T14:14:39.571Z,4.83
2022-10-13T14:17:06.722Z,4.13
2022-10-13T14:19:33.531Z,4.07
2022-10-13T14:22:03.697Z,4.27
2022-10-13T14:24:34.191Z,3.97
2022-10-13T14:27:00.983Z,4.30
2022-10-13T14:29:28.129Z,4.20
2022-10-13T14:31:58.097Z,4.33
2022-10-13T14:34:25.094Z,3.10
2022-10-13T14:36:51.875Z,3.40
2022-10-13T14:39:18.852Z,3.63
2022-10-13T14:41:45.628Z,3.60
2022-10-13T14:44:13.801Z,3.50
2022-10-13T14:46:41.325Z,3.77
2022-10-13T14:49:09.697Z,3.80
2022-10-13T14:51:36.460Z,3.80
2022-10-13T14:54:04.565Z,4.90
2022-10-13T14:56:31.444Z,4.50
2022-10-13T14:59:02.461Z,3.10
2022-10-13T15:01:29.475Z,3.20
2022-10-13T15:03:56.376Z,3.93
2022-10-13T15:06:25.760Z,3.73
2022-10-13T15:08:53.249Z,3.77
2022-10-13T15:11:21.299Z,3.60
2022-10-13T15:13:48.371Z,4.13
2022-10-13T15:16:20.538Z,3.20
2022-10-13T15:18:47.365Z,3.83
2022-10-13T15:21:14.766Z,3.63
2022-10-13T15:23:41.844Z,4.03
2022-10-13T15:26:10.291Z,4.73
2022-10-13T15:28:40.092Z,4.73
2022-10-13T15:31:07.438Z,5.00
2022-10-13T15:33:34.531Z,4.93
2022-10-13T15:36:01.559Z,4.50
2022-10-13T15:38:28.391Z,3.90
2022-10-13T15:41:03.136Z,4.17
2022-10-13T15:43:32.620Z,3.70
2022-10-13T15:46:07.618Z,4.03
2022-10-13T15:48:34.979Z,3.97
2022-10-13T15:51:02.844Z,4.20
2022-10-13T15:53:30.262Z,3.90
2022-10-13T15:55:57.095Z,3.97
2022-10-13T15:58:23.838Z,3.70
2022-10-13T16:00:50.748Z,3.37
2022-10-13T16:03:18.605Z,3.90
2022-10-13T16:05:46.635Z,4.10
2022-10-13T16:08:14.751Z,4.70
2022-10-13T16:10:42.764Z,4.00
2022-10-13T16:13:12.979Z,4.50
2022-10-13T16:15:39.900Z,3.83
2022-10-13T16:18:06.684Z,4.70
2022-10-13T16:20:37.768Z,8.90
2022-10-13T16:23:05.043Z,8.90
2022-10-13T16:25:32.142Z,8.73
2022-10-13T16:27:59.865Z,8.93
2022-10-13T16:30:27.223Z,9.33
2022-10-13T16:32:53.983Z,8.17
2022-10-13T16:35:20.887Z,7.03
2022-10-13T16:37:47.623Z,7.07
2022-10-13T16:40:14.840Z,6.83
2022-10-13T16:42:43.351Z,6.93
2022-10-13T16:45:10.393Z,7.20
2022-10-13T16:47:37.096Z,6.13
2022-10-13T16:50:09.463Z,5.77
2022-10-13T16:52:39.291Z,6.20
2022-10-13T16:55:06.608Z,6.43
2022-10-13T16:57:33.756Z,7.37
2022-10-13T17:00:00.530Z,6.00
2022-10-13T17:02:27.424Z,6.87
2022-10-13T17:04:54.420Z,7.63
2022-10-13T17:07:22.036Z,8.43
2022-10-13T17:09:50.009Z,9.10
2022-10-13T17:12:16.786Z,20.80
2022-10-13T17:14:43.856Z,20.87
2022-10-13T17:17:10.614Z,12.50
2022-10-13T17:19:37.448Z,9.57
2022-10-13T17:22:04.556Z,10.40
2022-10-13T17:24:31.407Z,10.17
2022-10-13T17:26:58.354Z,10.93
2022-10-13T17:29:25.373Z,14.20
2022-10-13T17:31:52.196Z,10.40
2022-10-13T17:34:18.995Z,10.07
2022-10-13T17:36:45.730Z,9.80
2022-10-13T17:39:12.601Z,14.83
2022-10-13T17:41:40.153Z,11.73
2022-10-13T17:44:06.949Z,12.70
2022-10-13T17:46:38.611Z,13.00
2022-10-13T17:49:07.642Z,14.87
2022-10-13T17:51:34.513Z,10.93
2022-10-13T17:54:01.262Z,10.10
2022-10-13T17:56:28.678Z,10.07
2022-10-13T17:58:55.659Z,9.47
2022-10-13T18:01:25.231Z,10.23
2022-10-13T18:03:55.880Z,8.90
2022-10-13T18:06:23.597Z,9.40
2022-10-13T18:08:50.951Z,10.50
2022-10-13T18:11:20.474Z,11.70
2022-10-13T18:13:47.935Z,9.63
2022-10-13T18:16:19.745Z,9.20
2022-10-13T18:18:46.855Z,11.57
2022-10-13T18:21:16.042Z,11.50
2022-10-13T18:23:44.083Z,11.83
2022-10-13T18:26:16.676Z,12.23
2022-10-13T18:28:45.051Z,11.80
2022-10-13T18:31:13.291Z,10.93
2022-10-13T18:33:41.023Z,9.93
2022-10-13T18:36:17.480Z,11.33
2022-10-13T18:38:44.261Z,11.40
2022-10-13T18:41:11.168Z,10.10
2022-10-13T18:43:38.095Z,11.07
2022-10-13T18:46:05.683Z,13.83
2022-10-13T18:48:33.387Z,14.17
2022-10-13T18:51:04.694Z,14.23
2022-10-13T18:53:31.592Z,13.07
2022-10-13T18:56:03.447Z,13.47
2022-10-13T18:58:31.275Z,15.07
2022-10-13T19:01:06.329Z,15.50
2022-10-13T19:03:34.557Z,15.50
2022-10-13T19:06:04.362Z,16.53
2022-10-13T19:08:31.561Z,14.60
2022-10-13T19:11:05.210Z,14.67
2022-10-13T19:13:33.243Z,14.67
2022-10-13T19:16:03.755Z,13.33
2022-10-13T19:18:30.711Z,12.77
2022-10-13T19:20:57.513Z,10.60
2022-10-13T19:23:24.396Z,11.83
2022-10-13T19:25:51.807Z,15.07
2022-10-13T19:28:19.429Z,16.20
2022-10-13T19:30:47.745Z,16.57
2022-10-13T19:33:15.572Z,14.70
2022-10-13T19:35:45.553Z,13.13
2022-10-13T19:38:13.277Z,13.23
2022-10-13T19:40:46.321Z,14.23
2022-10-13T19:43:13.093Z,13.90
2022-10-13T19:45:46.854Z,12.00
2022-10-13T19:48:14.888Z,11.53
2022-10-13T19:50:42.172Z,11.20
2022-10-13T19:53:09.899Z,13.27
2022-10-13T19:55:46.801Z,12.73
2022-10-13T19:58:15.992Z,11.53
2022-10-13T20:00:44.153Z,11.93
2022-10-13T20:03:12.223Z,11.17
2022-10-13T20:05:39.389Z,11.77
2022-10-13T20:08:06.907Z,12.43
2022-10-13T20:10:34.791Z,12.10
2022-10-13T20:13:01.707Z,13.90
2022-10-13T20:15:28.454Z,13.17
2022-10-13T20:17:55.226Z,14.63
2022-10-13T20:20:22.591Z,15.43
2022-10-13T20:22:49.456Z,15.63
2022-10-13T20:25:19.872Z,12.23
2022-10-13T20:27:48.911Z,12.47
2022-10-13T20:30:15.776Z,14.10
2022-10-13T20:32:42.598Z,12.43
2022-10-13T20:35:09.831Z,11.30
2022-10-13T20:37:36.648Z,11.40
2022-10-13T20:40:04.079Z,11.93
2022-10-13T20:42:30.936Z,12.07
2022-10-13T20:44:57.760Z,12.97
2022-10-13T20:47:24.676Z,14.10
2022-10-13T20:49:51.480Z,11.60
2022-10-13T20:52:18.295Z,11.07
2022-10-13T20:54:45.041Z,11.73
2022-10-13T20:57:12.073Z,22.93
2022-10-13T20:59:40.180Z,21.87
2022-10-13T21:02:07.018Z,22.00
2022-10-13T21:04:34.991Z,22.50
2022-10-13T21:07:01.854Z,22.33
2022-10-13T21:09:28.617Z,19.80
2022-10-13T21:11:55.357Z,26.03
2022-10-13T21:14:22.128Z,17.43
2022-10-13T21:16:48.835Z,22.60
2022-10-13T21:19:15.693Z,33.03
2022-10-13T21:21:42.413Z,47.10
2022-10-13T21:24:10.352Z,32.97
2022-10-13T21:26:38.673Z,19.70
2022-10-13T21:29:08.477Z,26.83
2022-10-13T21:31:35.957Z,16.67
2022-10-13T21:34:03.211Z,14.57
2022-10-13T21:36:32.205Z,14.13
2022-10-13T21:39:01.226Z,14.47
2022-10-13T21:41:28.894Z,15.23
2022-10-13T21:43:56.477Z,14.07
2022-10-13T21:46:28.791Z,15.43
2022-10-13T21:48:57.473Z,14.47
2022-10-13T21:51:29.425Z,16.10
2022-10-13T21:54:08.417Z,17.27
2022-10-13T21:56:36.056Z,16.07
2022-10-13T21:59:03.512Z,19.10
2022-10-13T22:01:30.658Z,16.97
2022-10-13T22:03:59.389Z,18.23
2022-10-13T22:06:28.211Z,15.13
2022-10-13T22:08:56.390Z,15.13
2022-10-13T22:11:26.064Z,15.27
2022-10-13T22:13:53.056Z,14.13
2022-10-13T22:16:28.657Z,15.67
2022-10-13T22:18:57.525Z,18.53
2022-10-13T22:21:27.836Z,17.43
2022-10-13T22:23:59.895Z,16.87
2022-10-13T22:26:28.524Z,18.53
2022-10-13T22:28:56.902Z,17.13
2022-10-13T22:31:23.655Z,17.33
2022-10-13T22:33:53.583Z,17.00
2022-10-13T22:36:23.366Z,16.17
2022-10-13T22:38:51.837Z,15.97
2022-10-13T22:41:19.456Z,15.93
2022-10-13T22:43:50.695Z,15.67
2022-10-13T22:46:19.098Z,16.20
2022-10-13T22:48:46.057Z,17.27
2022-10-13T22:51:15.688Z,16.27
2022-10-13T22:53:42.919Z,18.80
2022-10-13T22:56:15.759Z,16.13
2022-10-13T22:58:43.871Z,15.87
2022-10-13T23:01:13.454Z,16.20
2022-10-13T23:03:41.139Z,16.50
2022-10-13T23:06:13.943Z,16.03
2022-10-13T23:08:41.335Z,15.17
2022-10-13T23:11:08.495Z,15.20
2022-10-13T23:13:36.532Z,18.00
2022-10-13T23:16:09.580Z,20.03
2022-10-13T23:18:36.313Z,19.03
2022-10-13T23:21:12.440Z,16.73
2022-10-13T23:23:39.459Z,16.67
2022-10-13T23:26:09.472Z,18.23
2022-10-13T23:28:36.413Z,17.17
2022-10-13T23:31:05.547Z,15.90
2022-10-13T23:33:32.730Z,16.37
2022-10-13T23:36:01.802Z,16.23
2022-10-13T23:38:30.403Z,16.20
2022-10-13T23:41:06.513Z,17.90
2022-10-13T23:43:33.445Z,17.73
2022-10-13T23:46:01.013Z,18.10
2022-10-13T23:48:28.257Z,17.73
2022-10-13T23:50:56.561Z,15.00
2022-10-13T23:53:23.494Z,15.70
2022-10-13T23:55:50.259Z,14.87
2022-10-13T23:58:16.981Z,15.87
